sensor_id;sensor_type;location;lat;lon;timestamp;P1;durP1;ratioP1;P2;durP2;ratioP2
18304;SDS011;9278;52.156;21.048;2023-03-20T00:00:31;48.55;;;21.48;;
18304;SDS011;9278;52.156;21.048;2023-03-20T00:03:01;51.95;;;22.77;;
18304;SDS011;9278;52.156;21.048;2023-03-20T00:05:30;57.22;;;23.00;;
18304;SDS011;9278;52.156;21.048;2023-03-20T00:07:58;53.10;;;22.00;;
18304;SDS011;9278;52.156;21.048;2023-03-20T00:10:29;53.07;;;21.97;;
18304;SDS011;9278;52.156;21.048;2023-03-20T00:13:00;57.50;;;22.58;;
18304;SDS011;9278;52.156;21.048;2023-03-20T00:15:29;55.63;;;22.83;;
18304;SDS011;9278;52.156;21.048;2023-03-20T00:18:00;52.20;;;22.43;;
18304;SDS011;9278;52.156;21.048;2023-03-20T00:20:28;51.83;;;22.73;;
18304;SDS011;9278;52.156;21.048;2023-03-20T00:22:57;51.53;;;22.10;;
18304;SDS011;9278;52.156;21.048;2023-03-20T00:25:25;51.90;;;21.33;;
18304;SDS011;9278;52.156;21.048;2023-03-20T00:27:54;52.50;;;22.20;;
18304;SDS011;9278;52.156;21.048;2023-03-20T00:30:25;54.63;;;22.83;;
18304;SDS011;9278;52.156;21.048;2023-03-20T00:32:55;55.97;;;23.00;;
18304;SDS011;9278;52.156;21.048;2023-03-20T00:35:26;60.03;;;25.73;;
18304;SDS011;9278;52.156;21.048;2023-03-20T00:37:56;54.67;;;24.07;;
18304;SDS011;9278;52.156;21.048;2023-03-20T00:40:27;59.33;;;23.87;;
18304;SDS011;9278;52.156;21.048;2023-03-20T00:42:59;61.73;;;24.57;;
18304;SDS011;9278;52.156;21.048;2023-03-20T00:45:30;52.57;;;23.47;;
18304;SDS011;9278;52.156;21.048;2023-03-20T00:48:01;55.47;;;23.70;;
18304;SDS011;9278;52.156;21.048;2023-03-20T00:50:29;58.40;;;24.73;;
18304;SDS011;9278;52.156;21.048;2023-03-20T00:52:58;57.53;;;24.90;;
18304;SDS011;9278;52.156;21.048;2023-03-20T00:55:27;63.53;;;25.70;;
18304;SDS011;9278;52.156;21.048;2023-03-20T00:57:57;62.63;;;25.93;;
18304;SDS011;9278;52.156;21.048;2023-03-20T01:00:35;61.73;;;24.00;;
18304;SDS011;9278;52.156;21.048;2023-03-20T01:03:13;61.73;;;26.17;;
18304;SDS011;9278;52.156;21.048;2023-03-20T01:05:46;58.70;;;24.13;;
18304;SDS011;9278;52.156;21.048;2023-03-20T01:08:16;60.47;;;26.23;;
18304;SDS011;9278;52.156;21.048;2023-03-20T01:10:45;52.00;;;22.73;;
18304;SDS011;9278;52.156;21.048;2023-03-20T01:13:19;58.53;;;25.83;;
18304;SDS011;9278;52.156;21.048;2023-03-20T01:15:50;60.30;;;25.37;;
18304;SDS011;9278;52.156;21.048;2023-03-20T01:18:19;59.43;;;24.73;;
18304;SDS011;9278;52.156;21.048;2023-03-20T01:20:49;63.13;;;25.47;;
18304;SDS011;9278;52.156;21.048;2023-03-20T01:23:19;62.77;;;26.10;;
18304;SDS011;9278;52.156;21.048;2023-03-20T01:25:49;61.43;;;25.30;;
18304;SDS011;9278;52.156;21.048;2023-03-20T01:28:18;64.97;;;25.00;;
18304;SDS011;9278;52.156;21.048;2023-03-20T01:30:47;63.87;;;27.40;;
18304;SDS011;9278;52.156;21.048;2023-03-20T01:33:18;60.50;;;26.60;;
18304;SDS011;9278;52.156;21.048;2023-03-20T01:35:52;66.20;;;27.33;;
18304;SDS011;9278;52.156;21.048;2023-03-20T01:38:21;65.83;;;26.47;;
18304;SDS011;9278;52.156;21.048;2023-03-20T01:40:53;68.20;;;28.63;;
18304;SDS011;9278;52.156;21.048;2023-03-20T01:43:27;65.33;;;27.47;;
18304;SDS011;9278;52.156;21.048;2023-03-20T01:45:58;72.67;;;27.70;;
18304;SDS011;9278;52.156;21.048;2023-03-20T01:48:35;69.87;;;26.43;;
18304;SDS011;9278;52.156;21.048;2023-03-20T01:51:25;61.60;;;26.10;;
18304;SDS011;9278;52.156;21.048;2023-03-20T01:53:59;63.10;;;25.43;;
18304;SDS011;9278;52.156;21.048;2023-03-20T01:56:32;70.40;;;28.03;;
18304;SDS011;9278;52.156;21.048;2023-03-20T01:59:02;65.43;;;27.83;;
18304;SDS011;9278;52.156;21.048;2023-03-20T02:01:32;68.53;;;27.20;;
18304;SDS011;9278;52.156;21.048;2023-03-20T02:04:03;65.67;;;26.93;;
18304;SDS011;9278;52.156;21.048;2023-03-20T02:06:44;57.63;;;25.57;;
18304;SDS011;9278;52.156;21.048;2023-03-20T02:09:22;62.40;;;26.40;;
18304;SDS011;9278;52.156;21.048;2023-03-20T02:11:50;65.27;;;24.23;;
18304;SDS011;9278;52.156;21.048;2023-03-20T02:14:19;60.47;;;26.27;;
18304;SDS011;9278;52.156;21.048;2023-03-20T02:16:58;61.03;;;25.57;;
18304;SDS011;9278;52.156;21.048;2023-03-20T02:19:44;62.67;;;24.90;;
18304;SDS011;9278;52.156;21.048;2023-03-20T02:22:22;59.97;;;24.33;;
18304;SDS011;9278;52.156;21.048;2023-03-20T02:28:02;62.03;;;26.47;;
18304;SDS011;9278;52.156;21.048;2023-03-20T02:30:41;58.97;;;25.10;;
18304;SDS011;9278;52.156;21.048;2023-03-20T02:33:48;62.43;;;24.07;;
18304;SDS011;9278;52.156;21.048;2023-03-20T02:36:58;59.50;;;24.50;;
18304;SDS011;9278;52.156;21.048;2023-03-20T02:39:39;55.13;;;22.80;;
18304;SDS011;9278;52.156;21.048;2023-03-20T02:42:19;60.57;;;24.53;;
18304;SDS011;9278;52.156;21.048;2023-03-20T02:44:52;55.37;;;23.10;;
18304;SDS011;9278;52.156;21.048;2023-03-20T02:47:27;55.97;;;22.83;;
18304;SDS011;9278;52.156;21.048;2023-03-20T02:50:13;56.47;;;22.93;;
18304;SDS011;9278;52.156;21.048;2023-03-20T02:52:47;53.17;;;22.23;;
18304;SDS011;9278;52.156;21.048;2023-03-20T02:55:23;54.87;;;23.40;;
18304;SDS011;9278;52.156;21.048;2023-03-20T02:57:58;57.53;;;23.37;;
18304;SDS011;9278;52.156;21.048;2023-03-20T03:00:32;57.47;;;23.37;;
18304;SDS011;9278;52.156;21.048;2023-03-20T03:03:05;58.10;;;24.30;;
18304;SDS011;9278;52.156;21.048;2023-03-20T03:05:39;65.17;;;26.23;;
18304;SDS011;9278;52.156;21.048;2023-03-20T03:08:12;61.20;;;24.50;;
18304;SDS011;9278;52.156;21.048;2023-03-20T03:10:45;62.23;;;26.17;;
18304;SDS011;9278;52.156;21.048;2023-03-20T03:13:17;62.03;;;25.53;;
18304;SDS011;9278;52.156;21.048;2023-03-20T03:15:48;56.63;;;25.57;;
18304;SDS011;9278;52.156;21.048;2023-03-20T03:18:19;63.40;;;24.43;;
18304;SDS011;9278;52.156;21.048;2023-03-20T03:20:49;61.77;;;24.70;;
18304;SDS011;9278;52.156;21.048;2023-03-20T03:23:29;59.17;;;24.73;;
18304;SDS011;9278;52.156;21.048;2023-03-20T03:25:59;63.30;;;23.97;;
18304;SDS011;9278;52.156;21.048;2023-03-20T03:28:30;59.00;;;24.93;;
18304;SDS011;9278;52.156;21.048;2023-03-20T03:31:02;60.83;;;23.73;;
18304;SDS011;9278;52.156;21.048;2023-03-20T03:33:35;61.77;;;24.73;;
18304;SDS011;9278;52.156;21.048;2023-03-20T03:36:08;60.33;;;24.07;;
18304;SDS011;9278;52.156;21.048;2023-03-20T03:38:39;63.03;;;24.00;;
18304;SDS011;9278;52.156;21.048;2023-03-20T03:41:19;62.93;;;24.87;;
18304;SDS011;9278;52.156;21.048;2023-03-20T03:43:50;61.10;;;24.33;;
18304;SDS011;9278;52.156;21.048;2023-03-20T03:46:23;54.80;;;23.37;;
18304;SDS011;9278;52.156;21.048;2023-03-20T03:48:54;60.43;;;25.37;;
18304;SDS011;9278;52.156;21.048;2023-03-20T03:51:25;62.97;;;23.97;;
18304;SDS011;9278;52.156;21.048;2023-03-20T03:54:05;59.73;;;25.20;;
18304;SDS011;9278;52.156;21.048;2023-03-20T03:56:40;57.23;;;23.20;;
18304;SDS011;9278;52.156;21.048;2023-03-20T03:59:12;59.43;;;23.73;;
18304;SDS011;9278;52.156;21.048;2023-03-20T04:01:42;53.70;;;22.23;;
18304;SDS011;9278;52.156;21.048;2023-03-20T04:04:11;53.50;;;23.17;;
18304;SDS011;9278;52.156;21.048;2023-03-20T04:06:42;58.87;;;24.07;;
18304;SDS011;9278;52.156;21.048;2023-03-20T04:09:10;53.47;;;24.70;;
18304;SDS011;9278;52.156;21.048;2023-03-20T04:11:40;61.93;;;24.93;;
18304;SDS011;9278;52.156;21.048;2023-03-20T04:14:09;57.37;;;24.27;;
18304;SDS011;9278;52.156;21.048;2023-03-20T04:16:40;57.53;;;23.47;;
18304;SDS011;9278;52.156;21.048;2023-03-20T04:19:08;55.37;;;23.93;;
18304;SDS011;9278;52.156;21.048;2023-03-20T04:21:37;54.63;;;23.53;;
18304;SDS011;9278;52.156;21.048;2023-03-20T04:24:06;56.53;;;24.63;;
18304;SDS011;9278;52.156;21.048;2023-03-20T04:26:35;55.30;;;22.87;;
18304;SDS011;9278;52.156;21.048;2023-03-20T04:29:05;56.70;;;24.90;;
18304;SDS011;9278;52.156;21.048;2023-03-20T04:31:51;59.07;;;24.50;;
18304;SDS011;9278;52.156;21.048;2023-03-20T04:34:34;56.50;;;22.63;;
18304;SDS011;9278;52.156;21.048;2023-03-20T04:37:25;65.47;;;24.40;;
18304;SDS011;9278;52.156;21.048;2023-03-20T04:40:00;63.07;;;22.87;;
18304;SDS011;9278;52.156;21.048;2023-03-20T04:42:30;56.20;;;24.27;;
18304;SDS011;9278;52.156;21.048;2023-03-20T04:45:04;59.70;;;23.60;;
18304;SDS011;9278;52.156;21.048;2023-03-20T04:47:35;66.83;;;23.37;;
18304;SDS011;9278;52.156;21.048;2023-03-20T04:50:04;58.07;;;23.93;;
18304;SDS011;9278;52.156;21.048;2023-03-20T04:52:34;59.60;;;23.10;;
18304;SDS011;9278;52.156;21.048;2023-03-20T04:55:04;58.10;;;24.33;;
18304;SDS011;9278;52.156;21.048;2023-03-20T04:57:33;52.57;;;23.17;;
18304;SDS011;9278;52.156;21.048;2023-03-20T05:00:05;57.57;;;23.20;;
18304;SDS011;9278;52.156;21.048;2023-03-20T05:02:34;59.63;;;23.67;;
18304;SDS011;9278;52.156;21.048;2023-03-20T05:05:02;55.33;;;22.80;;
18304;SDS011;9278;52.156;21.048;2023-03-20T05:07:34;57.83;;;24.00;;
18304;SDS011;9278;52.156;21.048;2023-03-20T05:10:06;59.30;;;23.93;;
18304;SDS011;9278;52.156;21.048;2023-03-20T05:12:55;57.40;;;23.87;;
18304;SDS011;9278;52.156;21.048;2023-03-20T05:15:54;66.93;;;25.23;;
18304;SDS011;9278;52.156;21.048;2023-03-20T05:18:46;57.83;;;24.27;;
18304;SDS011;9278;52.156;21.048;2023-03-20T05:21:50;52.27;;;23.67;;
18304;SDS011;9278;52.156;21.048;2023-03-20T05:24:46;58.30;;;24.37;;
18304;SDS011;9278;52.156;21.048;2023-03-20T05:27:40;61.97;;;24.13;;
18304;SDS011;9278;52.156;21.048;2023-03-20T05:30:36;66.73;;;27.60;;
18304;SDS011;9278;52.156;21.048;2023-03-20T05:33:26;61.97;;;25.27;;
18304;SDS011;9278;52.156;21.048;2023-03-20T05:36:20;62.37;;;24.33;;
18304;SDS011;9278;52.156;21.048;2023-03-20T05:39:11;56.33;;;24.27;;
18304;SDS011;9278;52.156;21.048;2023-03-20T05:42:10;58.43;;;23.90;;
18304;SDS011;9278;52.156;21.048;2023-03-20T05:44:58;53.20;;;24.03;;
18304;SDS011;9278;52.156;21.048;2023-03-20T05:47:30;56.40;;;23.97;;
18304;SDS011;9278;52.156;21.048;2023-03-20T05:50:32;71.53;;;26.20;;
18304;SDS011;9278;52.156;21.048;2023-03-20T05:53:04;57.87;;;24.20;;
18304;SDS011;9278;52.156;21.048;2023-03-20T05:56:02;59.77;;;24.67;;
18304;SDS011;9278;52.156;21.048;2023-03-20T05:58:49;54.67;;;23.80;;
18304;SDS011;9278;52.156;21.048;2023-03-20T06:01:47;57.47;;;24.57;;
18304;SDS011;9278;52.156;21.048;2023-03-20T06:04:22;54.13;;;23.03;;
18304;SDS011;9278;52.156;21.048;2023-03-20T06:07:18;51.90;;;23.50;;
18304;SDS011;9278;52.156;21.048;2023-03-20T06:09:56;65.20;;;23.73;;
18304;SDS011;9278;52.156;21.048;2023-03-20T06:12:27;58.67;;;23.97;;
18304;SDS011;9278;52.156;21.048;2023-03-20T06:14:56;53.13;;;23.80;;
18304;SDS011;9278;52.156;21.048;2023-03-20T06:17:27;55.23;;;23.27;;
18304;SDS011;9278;52.156;21.048;2023-03-20T06:20:01;54.70;;;23.27;;
18304;SDS011;9278;52.156;21.048;2023-03-20T06:22:31;54.53;;;22.27;;
18304;SDS011;9278;52.156;21.048;2023-03-20T06:25:00;53.87;;;23.30;;
18304;SDS011;9278;52.156;21.048;2023-03-20T06:27:34;55.83;;;23.93;;
18304;SDS011;9278;52.156;21.048;2023-03-20T06:30:03;52.17;;;22.37;;
18304;SDS011;9278;52.156;21.048;2023-03-20T06:32:34;57.33;;;24.07;;
18304;SDS011;9278;52.156;21.048;2023-03-20T06:35:06;55.47;;;22.03;;
18304;SDS011;9278;52.156;21.048;2023-03-20T06:37:38;52.50;;;23.70;;
18304;SDS011;9278;52.156;21.048;2023-03-20T06:40:12;51.40;;;23.73;;
18304;SDS011;9278;52.156;21.048;2023-03-20T06:42:41;55.43;;;23.90;;
18304;SDS011;9278;52.156;21.048;2023-03-20T06:45:09;55.40;;;23.03;;
18304;SDS011;9278;52.156;21.048;2023-03-20T06:47:59;66.50;;;24.30;;
18304;SDS011;9278;52.156;21.048;2023-03-20T06:50:28;51.75;;;24.15;;
18304;SDS011;9278;52.156;21.048;2023-03-20T06:52:58;58.33;;;25.00;;
18304;SDS011;9278;52.156;21.048;2023-03-20T06:55:30;57.87;;;24.87;;
18304;SDS011;9278;52.156;21.048;2023-03-20T06:57:59;61.70;;;24.73;;
18304;SDS011;9278;52.156;21.048;2023-03-20T07:00:29;58.03;;;25.08;;
18304;SDS011;9278;52.156;21.048;2023-03-20T07:03:01;60.80;;;26.40;;
18304;SDS011;9278;52.156;21.048;2023-03-20T07:05:30;55.78;;;25.10;;
18304;SDS011;9278;52.156;21.048;2023-03-20T07:08:04;54.85;;;25.05;;
18304;SDS011;9278;52.156;21.048;2023-03-20T07:10:33;59.25;;;26.40;;
18304;SDS011;9278;52.156;21.048;2023-03-20T07:13:03;62.72;;;27.60;;
18304;SDS011;9278;52.156;21.048;2023-03-20T07:15:34;59.10;;;26.08;;
18304;SDS011;9278;52.156;21.048;2023-03-20T07:18:05;66.05;;;27.58;;
18304;SDS011;9278;52.156;21.048;2023-03-20T07:20:34;66.97;;;27.73;;
18304;SDS011;9278;52.156;21.048;2023-03-20T07:23:03;54.55;;;25.70;;
18304;SDS011;9278;52.156;21.048;2023-03-20T07:25:34;72.53;;;28.38;;
18304;SDS011;9278;52.156;21.048;2023-03-20T07:28:13;63.95;;;27.38;;
18304;SDS011;9278;52.156;21.048;2023-03-20T07:30:49;67.05;;;27.73;;
18304;SDS011;9278;52.156;21.048;2023-03-20T07:33:17;64.65;;;27.88;;
18304;SDS011;9278;52.156;21.048;2023-03-20T07:35:50;70.05;;;26.33;;
18304;SDS011;9278;52.156;21.048;2023-03-20T07:38:21;71.10;;;28.20;;
18304;SDS011;9278;52.156;21.048;2023-03-20T07:41:03;65.32;;;26.98;;
18304;SDS011;9278;52.156;21.048;2023-03-20T07:43:34;57.10;;;27.70;;
18304;SDS011;9278;52.156;21.048;2023-03-20T07:46:21;61.15;;;27.02;;
18304;SDS011;9278;52.156;21.048;2023-03-20T07:48:52;65.70;;;28.70;;
18304;SDS011;9278;52.156;21.048;2023-03-20T07:51:22;62.03;;;27.70;;
18304;SDS011;9278;52.156;21.048;2023-03-20T07:53:52;62.45;;;27.25;;
18304;SDS011;9278;52.156;21.048;2023-03-20T07:56:21;65.03;;;28.63;;
18304;SDS011;9278;52.156;21.048;2023-03-20T07:58:49;58.05;;;27.85;;
18304;SDS011;9278;52.156;21.048;2023-03-20T08:01:18;66.40;;;27.08;;
18304;SDS011;9278;52.156;21.048;2023-03-20T08:03:46;61.08;;;26.52;;
18304;SDS011;9278;52.156;21.048;2023-03-20T08:06:15;67.32;;;28.52;;
18304;SDS011;9278;52.156;21.048;2023-03-20T08:08:43;66.50;;;27.90;;
18304;SDS011;9278;52.156;21.048;2023-03-20T08:11:13;64.07;;;26.83;;
18304;SDS011;9278;52.156;21.048;2023-03-20T08:13:42;69.28;;;27.63;;
18304;SDS011;9278;52.156;21.048;2023-03-20T08:16:11;56.70;;;26.33;;
18304;SDS011;9278;52.156;21.048;2023-03-20T08:18:39;57.15;;;27.30;;
18304;SDS011;9278;52.156;21.048;2023-03-20T08:21:09;63.53;;;27.08;;
18304;SDS011;9278;52.156;21.048;2023-03-20T08:23:37;61.45;;;26.38;;
18304;SDS011;9278;52.156;21.048;2023-03-20T08:26:06;60.83;;;25.67;;
18304;SDS011;9278;52.156;21.048;2023-03-20T08:28:36;55.65;;;25.83;;
18304;SDS011;9278;52.156;21.048;2023-03-20T08:31:13;60.70;;;24.65;;
18304;SDS011;9278;52.156;21.048;2023-03-20T08:33:43;55.85;;;25.50;;
18304;SDS011;9278;52.156;21.048;2023-03-20T08:36:12;54.03;;;24.55;;
18304;SDS011;9278;52.156;21.048;2023-03-20T08:38:41;61.63;;;25.20;;
18304;SDS011;9278;52.156;21.048;2023-03-20T08:41:10;56.50;;;24.08;;
18304;SDS011;9278;52.156;21.048;2023-03-20T08:43:40;62.25;;;24.83;;
18304;SDS011;9278;52.156;21.048;2023-03-20T08:46:08;51.30;;;24.00;;
18304;SDS011;9278;52.156;21.048;2023-03-20T08:48:37;49.88;;;23.60;;
18304;SDS011;9278;52.156;21.048;2023-03-20T08:51:06;47.75;;;22.02;;
18304;SDS011;9278;52.156;21.048;2023-03-20T08:53:35;54.97;;;22.75;;
18304;SDS011;9278;52.156;21.048;2023-03-20T08:56:04;48.72;;;21.80;;
18304;SDS011;9278;52.156;21.048;2023-03-20T08:58:32;57.75;;;22.17;;
18304;SDS011;9278;52.156;21.048;2023-03-20T09:01:03;43.47;;;18.67;;
18304;SDS011;9278;52.156;21.048;2023-03-20T09:03:33;43.67;;;19.40;;
18304;SDS011;9278;52.156;21.048;2023-03-20T09:06:03;46.58;;;20.33;;
18304;SDS011;9278;52.156;21.048;2023-03-20T09:08:33;49.17;;;19.63;;
18304;SDS011;9278;52.156;21.048;2023-03-20T09:11:01;43.38;;;19.50;;
18304;SDS011;9278;52.156;21.048;2023-03-20T09:13:30;51.38;;;21.05;;
18304;SDS011;9278;52.156;21.048;2023-03-20T09:15:59;55.28;;;20.60;;
18304;SDS011;9278;52.156;21.048;2023-03-20T09:18:29;41.30;;;18.80;;
18304;SDS011;9278;52.156;21.048;2023-03-20T09:20:57;42.60;;;18.85;;
18304;SDS011;9278;52.156;21.048;2023-03-20T09:23:26;46.10;;;20.05;;
18304;SDS011;9278;52.156;21.048;2023-03-20T09:25:55;44.80;;;19.48;;
18304;SDS011;9278;52.156;21.048;2023-03-20T09:28:23;41.50;;;19.63;;
18304;SDS011;9278;52.156;21.048;2023-03-20T09:30:54;43.00;;;19.00;;
18304;SDS011;9278;52.156;21.048;2023-03-20T09:33:23;43.92;;;18.15;;
18304;SDS011;9278;52.156;21.048;2023-03-20T09:35:53;41.55;;;18.70;;
18304;SDS011;9278;52.156;21.048;2023-03-20T09:38:22;44.33;;;17.73;;
18304;SDS011;9278;52.156;21.048;2023-03-20T09:40:51;37.20;;;17.95;;
18304;SDS011;9278;52.156;21.048;2023-03-20T09:46:10;39.92;;;15.82;;
18304;SDS011;9278;52.156;21.048;2023-03-20T09:48:52;37.42;;;15.07;;
18304;SDS011;9278;52.156;21.048;2023-03-20T09:51:27;33.42;;;15.40;;
18304;SDS011;9278;52.156;21.048;2023-03-20T09:54:03;32.67;;;15.57;;
18304;SDS011;9278;52.156;21.048;2023-03-20T09:56:33;31.42;;;15.00;;
18304;SDS011;9278;52.156;21.048;2023-03-20T09:59:02;34.63;;;16.67;;
18304;SDS011;9278;52.156;21.048;2023-03-20T10:01:34;33.85;;;15.25;;
18304;SDS011;9278;52.156;21.048;2023-03-20T10:04:07;35.00;;;15.82;;
18304;SDS011;9278;52.156;21.048;2023-03-20T10:06:38;35.50;;;15.35;;
18304;SDS011;9278;52.156;21.048;2023-03-20T10:09:10;35.03;;;15.48;;
18304;SDS011;9278;52.156;21.048;2023-03-20T10:11:49;31.65;;;15.65;;
18304;SDS011;9278;52.156;21.048;2023-03-20T10:14:26;33.85;;;16.30;;
18304;SDS011;9278;52.156;21.048;2023-03-20T10:17:05;40.70;;;15.52;;
18304;SDS011;9278;52.156;21.048;2023-03-20T10:19:43;30.25;;;15.43;;
18304;SDS011;9278;52.156;21.048;2023-03-20T10:22:16;37.00;;;15.98;;
18304;SDS011;9278;52.156;21.048;2023-03-20T10:24:48;35.28;;;17.20;;
18304;SDS011;9278;52.156;21.048;2023-03-20T10:27:22;35.40;;;15.80;;
18304;SDS011;9278;52.156;21.048;2023-03-20T10:29:58;34.65;;;16.13;;
18304;SDS011;9278;52.156;21.048;2023-03-20T10:32:43;30.45;;;14.90;;
18304;SDS011;9278;52.156;21.048;2023-03-20T10:35:16;31.73;;;15.23;;
18304;SDS011;9278;52.156;21.048;2023-03-20T10:37:52;34.90;;;15.18;;
18304;SDS011;9278;52.156;21.048;2023-03-20T10:40:25;47.15;;;15.73;;
18304;SDS011;9278;52.156;21.048;2023-03-20T10:42:56;38.35;;;16.83;;
18304;SDS011;9278;52.156;21.048;2023-03-20T10:45:28;33.67;;;16.55;;
18304;SDS011;9278;52.156;21.048;2023-03-20T10:48:02;40.28;;;18.73;;
18304;SDS011;9278;52.156;21.048;2023-03-20T10:50:35;44.33;;;20.10;;
18304;SDS011;9278;52.156;21.048;2023-03-20T10:53:06;42.85;;;17.17;;
18304;SDS011;9278;52.156;21.048;2023-03-20T10:55:36;41.00;;;18.95;;
18304;SDS011;9278;52.156;21.048;2023-03-20T10:58:10;44.63;;;19.73;;
18304;SDS011;9278;52.156;21.048;2023-03-20T11:00:44;50.90;;;21.70;;
18304;SDS011;9278;52.156;21.048;2023-03-20T11:03:16;51.25;;;21.13;;
18304;SDS011;9278;52.156;21.048;2023-03-20T11:05:50;43.85;;;20.88;;
18304;SDS011;9278;52.156;21.048;2023-03-20T11:08:36;48.38;;;22.20;;
18304;SDS011;9278;52.156;21.048;2023-03-20T11:11:07;50.35;;;22.67;;
18304;SDS011;9278;52.156;21.048;2023-03-20T11:13:37;54.28;;;24.63;;
18304;SDS011;9278;52.156;21.048;2023-03-20T11:16:07;56.17;;;25.00;;
18304;SDS011;9278;52.156;21.048;2023-03-20T11:18:39;57.58;;;26.17;;
18304;SDS011;9278;52.156;21.048;2023-03-20T11:21:12;55.22;;;25.00;;
18304;SDS011;9278;52.156;21.048;2023-03-20T11:23:46;53.60;;;25.02;;
18304;SDS011;9278;52.156;21.048;2023-03-20T11:26:15;52.35;;;24.70;;
18304;SDS011;9278;52.156;21.048;2023-03-20T11:28:46;57.00;;;25.10;;
18304;SDS011;9278;52.156;21.048;2023-03-20T11:31:16;52.47;;;24.92;;
18304;SDS011;9278;52.156;21.048;2023-03-20T11:33:49;57.33;;;24.65;;
18304;SDS011;9278;52.156;21.048;2023-03-20T11:36:27;51.03;;;23.63;;
18304;SDS011;9278;52.156;21.048;2023-03-20T11:39:00;48.42;;;23.70;;
18304;SDS011;9278;52.156;21.048;2023-03-20T11:41:33;51.80;;;23.75;;
18304;SDS011;9278;52.156;21.048;2023-03-20T11:44:01;51.10;;;23.80;;
18304;SDS011;9278;52.156;21.048;2023-03-20T11:46:30;57.05;;;21.42;;
18304;SDS011;9278;52.156;21.048;2023-03-20T11:49:06;51.50;;;21.48;;
18304;SDS011;9278;52.156;21.048;2023-03-20T11:51:45;48.55;;;20.90;;
18304;SDS011;9278;52.156;21.048;2023-03-20T11:54:16;51.33;;;21.05;;
18304;SDS011;9278;52.156;21.048;2023-03-20T11:56:50;44.30;;;21.23;;
18304;SDS011;9278;52.156;21.048;2023-03-20T11:59:20;44.63;;;20.58;;
18304;SDS011;9278;52.156;21.048;2023-03-20T12:01:49;43.45;;;19.75;;
18304;SDS011;9278;52.156;21.048;2023-03-20T12:04:20;46.38;;;20.23;;
18304;SDS011;9278;52.156;21.048;2023-03-20T12:06:55;43.38;;;20.65;;
18304;SDS011;9278;52.156;21.048;2023-03-20T12:09:27;46.55;;;21.95;;
18304;SDS011;9278;52.156;21.048;2023-03-20T12:11:59;49.05;;;22.40;;
18304;SDS011;9278;52.156;21.048;2023-03-20T12:14:32;51.47;;;23.13;;
18304;SDS011;9278;52.156;21.048;2023-03-20T12:17:11;50.88;;;23.40;;
18304;SDS011;9278;52.156;21.048;2023-03-20T12:19:56;48.00;;;23.35;;
18304;SDS011;9278;52.156;21.048;2023-03-20T12:22:27;46.33;;;24.20;;
18304;SDS011;9278;52.156;21.048;2023-03-20T12:25:00;58.15;;;25.25;;
18304;SDS011;9278;52.156;21.048;2023-03-20T12:27:35;47.35;;;24.45;;
18304;SDS011;9278;52.156;21.048;2023-03-20T12:30:09;46.80;;;23.40;;
18304;SDS011;9278;52.156;21.048;2023-03-20T12:32:43;50.45;;;23.38;;
18304;SDS011;9278;52.156;21.048;2023-03-20T12:35:18;45.42;;;21.25;;
18304;SDS011;9278;52.156;21.048;2023-03-20T12:37:51;49.60;;;22.13;;
18304;SDS011;9278;52.156;21.048;2023-03-20T12:40:22;41.88;;;21.50;;
18304;SDS011;9278;52.156;21.048;2023-03-20T12:43:01;40.83;;;21.63;;
18304;SDS011;9278;52.156;21.048;2023-03-20T12:45:32;43.45;;;21.85;;
18304;SDS011;9278;52.156;21.048;2023-03-20T12:48:16;41.30;;;19.80;;
18304;SDS011;9278;52.156;21.048;2023-03-20T12:51:15;38.60;;;19.40;;
18304;SDS011;9278;52.156;21.048;2023-03-20T12:53:51;43.28;;;20.15;;
18304;SDS011;9278;52.156;21.048;2023-03-20T12:56:26;38.70;;;19.48;;
18304;SDS011;9278;52.156;21.048;2023-03-20T12:59:04;48.17;;;20.80;;
18304;SDS011;9278;52.156;21.048;2023-03-20T13:01:38;43.05;;;20.58;;
18304;SDS011;9278;52.156;21.048;2023-03-20T13:06:59;43.55;;;20.30;;
18304;SDS011;9278;52.156;21.048;2023-03-20T13:09:39;48.60;;;20.55;;
18304;SDS011;9278;52.156;21.048;2023-03-20T13:12:14;39.35;;;19.33;;
18304;SDS011;9278;52.156;21.048;2023-03-20T13:14:51;40.78;;;19.23;;
18304;SDS011;9278;52.156;21.048;2023-03-20T13:17:27;38.35;;;18.45;;
18304;SDS011;9278;52.156;21.048;2023-03-20T13:20:04;36.95;;;16.77;;
18304;SDS011;9278;52.156;21.048;2023-03-20T13:22:48;34.17;;;16.65;;
18304;SDS011;9278;52.156;21.048;2023-03-20T13:25:30;27.70;;;14.63;;
18304;SDS011;9278;52.156;21.048;2023-03-20T13:28:21;33.08;;;14.90;;
18304;SDS011;9278;52.156;21.048;2023-03-20T13:30:58;31.58;;;15.00;;
18304;SDS011;9278;52.156;21.048;2023-03-20T13:33:48;34.17;;;15.73;;
18304;SDS011;9278;52.156;21.048;2023-03-20T13:36:23;35.30;;;15.23;;
18304;SDS011;9278;52.156;21.048;2023-03-20T13:38:56;30.73;;;17.45;;
18304;SDS011;9278;52.156;21.048;2023-03-20T13:41:26;34.60;;;18.08;;
18304;SDS011;9278;52.156;21.048;2023-03-20T13:43:57;35.60;;;20.00;;
18304;SDS011;9278;52.156;21.048;2023-03-20T13:46:31;43.25;;;21.15;;
18304;SDS011;9278;52.156;21.048;2023-03-20T13:49:03;38.95;;;21.98;;
18304;SDS011;9278;52.156;21.048;2023-03-20T13:51:34;44.33;;;24.13;;
18304;SDS011;9278;52.156;21.048;2023-03-20T13:54:07;51.70;;;25.38;;
18304;SDS011;9278;52.156;21.048;2023-03-20T13:56:40;49.70;;;26.25;;
18304;SDS011;9278;52.156;21.048;2023-03-20T13:59:19;51.28;;;27.60;;
18304;SDS011;9278;52.156;21.048;2023-03-20T14:02:22;55.30;;;25.58;;
18304;SDS011;9278;52.156;21.048;2023-03-20T14:05:00;45.50;;;24.70;;
18304;SDS011;9278;52.156;21.048;2023-03-20T14:07:31;55.42;;;26.75;;
18304;SDS011;9278;52.156;21.048;2023-03-20T14:13:04;48.90;;;24.98;;
18304;SDS011;9278;52.156;21.048;2023-03-20T14:15:39;49.55;;;25.60;;
18304;SDS011;9278;52.156;21.048;2023-03-20T14:18:15;44.70;;;24.25;;
18304;SDS011;9278;52.156;21.048;2023-03-20T14:20:50;44.40;;;23.98;;
18304;SDS011;9278;52.156;21.048;2023-03-20T14:23:24;42.15;;;24.38;;
18304;SDS011;9278;52.156;21.048;2023-03-20T14:25:56;47.20;;;24.25;;
18304;SDS011;9278;52.156;21.048;2023-03-20T14:28:26;38.97;;;22.85;;
18304;SDS011;9278;52.156;21.048;2023-03-20T14:31:20;44.75;;;23.25;;
18304;SDS011;9278;52.156;21.048;2023-03-20T14:33:57;42.83;;;22.45;;
18304;SDS011;9278;52.156;21.048;2023-03-20T14:36:28;42.58;;;21.92;;
18304;SDS011;9278;52.156;21.048;2023-03-20T14:39:11;38.78;;;21.10;;
18304;SDS011;9278;52.156;21.048;2023-03-20T14:41:47;41.58;;;21.15;;
18304;SDS011;9278;52.156;21.048;2023-03-20T14:44:48;39.65;;;21.70;;
18304;SDS011;9278;52.156;21.048;2023-03-20T14:47:21;40.60;;;20.92;;
18304;SDS011;9278;52.156;21.048;2023-03-20T14:49:52;40.53;;;20.70;;
18304;SDS011;9278;52.156;21.048;2023-03-20T14:52:31;36.28;;;20.73;;
18304;SDS011;9278;52.156;21.048;2023-03-20T14:55:28;39.92;;;22.23;;
18304;SDS011;9278;52.156;21.048;2023-03-20T14:58:01;44.78;;;24.90;;
18304;SDS011;9278;52.156;21.048;2023-03-20T15:00:35;44.55;;;24.50;;
18304;SDS011;9278;52.156;21.048;2023-03-20T15:03:15;46.17;;;24.73;;
18304;SDS011;9278;52.156;21.048;2023-03-20T15:05:44;45.65;;;24.65;;
18304;SDS011;9278;52.156;21.048;2023-03-20T15:08:15;41.63;;;23.85;;
18304;SDS011;9278;52.156;21.048;2023-03-20T15:10:48;45.13;;;26.08;;
18304;SDS011;9278;52.156;21.048;2023-03-20T15:13:18;44.00;;;24.50;;